Time;durP1;ratioP1;P1;durP2;ratioP2;P2;SDS_P1;SDS_P2;PMS_P1;PMS_P2;Temp;Humidity;BMP_temperature;BMP_pressure;BME280_temperature;BME280_humidity;BME280_pressure;Samples;Min_cycle;Max_cycle;Signal;HPM_P1;HPM_P2
2022/01/20 00:03:13;;;;;;;43.27;20.10;;;1.60;99.90;;;;;;10448233;28;20649;-85
2022/01/20 00:08:21;;;;;;;;;;;1.60;99.90;;;;;;10470363;28;20492;-83
2022/01/20 00:29:01;;;;;;;43.07;20.77;;;1.50;99.90;;;;;;10447843;28;20049;-84
2022/01/20 00:39:10;;;;;;;46.73;21.93;;;1.50;99.90;;;;;;10489831;28;20132;-83
2022/01/20 00:44:10;;;;;;;52.93;24.10;;;1.50;99.90;;;;;;10454939;28;20041;-84
2022/01/20 00:49:11;;;;;;;52.90;23.07;;;1.50;99.90;;;;;;10465224;28;20450;-84
2022/01/20 00:54:12;;;;;;;50.03;24.33;;;1.50;99.90;;;;;;10483557;28;20025;-84
2022/01/20 00:59:12;;;;;;;45.30;22.87;;;1.50;99.90;;;;;;10454832;28;20040;-83
2022/01/20 01:04:13;;;;;;;51.43;23.33;;;1.40;99.90;;;;;;10467076;28;20036;-85
2022/01/20 01:09:14;;;;;;;44.13;21.57;;;1.50;99.90;;;;;;10465903;28;20036;-86
2022/01/20 01:14:17;;;;;;;51.13;23.00;;;1.50;99.90;;;;;;10467456;28;20060;-84
2022/01/20 01:24:43;;;;;;;52.40;21.67;;;1.60;99.90;;;;;;10454601;28;20041;-83
2022/01/20 01:34:50;;;;;;;39.97;20.00;;;1.60;99.90;;;;;;10453180;28;20052;-83
2022/01/20 01:39:51;;;;;;;41.13;20.53;;;1.60;99.90;;;;;;10454316;28;20056;-83
2022/01/20 01:44:53;;;;;;;49.00;21.83;;;1.70;99.90;;;;;;10454819;28;20480;-83
2022/01/20 01:49:53;;;;;;;46.57;20.37;;;1.60;99.90;;;;;;10452195;28;20041;-84
2022/01/20 01:54:55;;;;;;;44.37;20.83;;;1.70;99.90;;;;;;10459021;28;20373;-84
2022/01/20 01:59:56;;;;;;;38.47;19.63;;;1.70;99.90;;;;;;10477761;28;20036;-83
2022/01/20 02:04:57;;;;;;;42.07;19.83;;;1.70;99.90;;;;;;10474733;28;20037;-84
2022/01/20 02:20:25;;;;;;;37.80;18.80;;;1.80;99.90;;;;;;10432598;28;20041;-84
2022/01/20 02:25:27;;;;;;;38.93;19.47;;;1.80;99.90;;;;;;10493698;28;20082;-83
2022/01/20 02:30:30;;;;;;;40.80;19.60;;;1.80;99.90;;;;;;10445998;28;20114;-86
2022/01/20 02:35:36;;;;;;;41.07;19.80;;;1.80;99.90;;;;;;10451606;28;20029;-84
2022/01/20 02:45:41;;;;;;;39.67;19.83;;;1.70;99.90;;;;;;10452250;28;20103;-83
2022/01/20 02:50:42;;;;;;;43.73;21.00;;;1.70;99.90;;;;;;10432832;28;20037;-85
2022/01/20 02:55:42;;;;;;;45.93;21.83;;;1.70;99.90;;;;;;10475143;28;20029;-84
2022/01/20 03:00:45;;;;;;;46.53;21.10;;;1.60;99.90;;;;;;10453920;28;20021;-85
2022/01/20 03:05:45;;;;;;;44.70;21.97;;;1.60;99.90;;;;;;10436174;28;20527;-83
2022/01/20 03:10:46;;;;;;;48.83;22.83;;;1.60;99.90;;;;;;10449339;28;20091;-84
2022/01/20 03:15:47;;;;;;;44.90;21.10;;;1.60;99.90;;;;;;10430572;28;20049;-84
2022/01/20 03:20:48;;;;;;;43.33;21.70;;;1.60;99.90;;;;;;10449282;28;20029;-83
2022/01/20 03:25:48;;;;;;;46.07;20.47;;;1.60;99.90;;;;;;10448407;28;20032;-85
2022/01/20 03:30:49;;;;;;;45.10;21.83;;;1.60;99.90;;;;;;10468243;28;20124;-83
2022/01/20 03:35:52;;;;;;;37.77;18.80;;;1.60;99.90;;;;;;10453015;28;20457;-83
2022/01/20 03:40:52;;;;;;;38.10;16.73;;;1.60;99.90;;;;;;10449320;28;20043;-84
2022/01/20 03:45:56;;;;;;;31.87;16.73;;;1.60;99.90;;;;;;10448674;28;20430;-82
2022/01/20 03:51:00;;;;;;;29.50;15.17;;;1.60;99.90;;;;;;10431814;28;20048;-85
2022/01/20 03:56:01;;;;;;;29.47;16.20;;;1.60;99.90;;;;;;10449111;28;20039;-82
2022/01/20 04:01:01;;;;;;;29.70;16.03;;;1.60;99.90;;;;;;10456063;28;20033;-83
2022/01/20 04:06:02;;;;;;;32.03;16.10;;;1.50;99.90;;;;;;10449619;28;20461;-83
2022/01/20 04:11:08;;;;;;;36.80;16.37;;;1.50;99.90;;;;;;10493607;28;20047;-85
2022/01/20 04:16:17;;;;;;;35.10;16.00;;;1.50;99.90;;;;;;10467416;28;20053;-86
2022/01/20 04:21:21;;;;;;;35.23;16.93;;;1.50;99.90;;;;;;10464353;28;20062;-87
2022/01/20 04:26:23;;;;;;;38.37;18.53;;;1.40;99.90;;;;;;10455474;28;20028;-85
2022/01/20 04:31:26;;;;;;;44.67;19.67;;;1.40;99.90;;;;;;10454086;28;20588;-85
2022/01/20 04:36:31;;;;;;;54.17;21.33;;;1.40;99.90;;;;;;10456912;28;20043;-87
2022/01/20 04:41:31;;;;;;;46.60;21.57;;;1.40;99.90;;;;;;10459722;28;20115;-84
2022/01/20 04:46:45;;;;;;;50.60;22.20;;;1.40;99.90;;;;;;10454386;28;20681;-87
2022/01/20 04:57:16;;;;;;;52.47;22.20;;;1.40;99.90;;;;;;10455764;28;20591;-82
2022/01/20 05:02:16;;;;;;;52.43;23.77;;;1.40;99.90;;;;;;10454236;28;20098;-83
2022/01/20 05:07:22;;;;;;;44.53;20.90;;;1.40;99.90;;;;;;10454972;28;20086;-86
2022/01/20 05:12:36;;;;;;;46.22;21.65;;;1.40;99.90;;;;;;10446320;28;20044;-84
2022/01/20 05:17:37;;;;;;;52.93;20.90;;;1.50;99.90;;;;;;10435954;28;20054;-84
2022/01/20 05:22:37;;;;;;;50.63;22.43;;;1.40;99.90;;;;;;10462798;28;20017;-82
2022/01/20 05:27:38;;;;;;;50.33;22.80;;;1.40;99.90;;;;;;10435906;28;20443;-83
2022/01/20 05:32:39;;;;;;;54.73;24.30;;;1.40;99.90;;;;;;10451643;28;20034;-82
2022/01/20 05:37:40;;;;;;;56.40;26.20;;;1.40;99.90;;;;;;10452246;28;20198;-84
2022/01/20 05:42:40;;;;;;;52.07;25.27;;;1.50;99.90;;;;;;10436322;28;20044;-83
2022/01/20 05:47:47;;;;;;;52.07;24.03;;;1.50;99.90;;;;;;10442961;28;20049;-84
2022/01/20 05:52:47;;;;;;;46.63;21.67;;;1.50;99.90;;;;;;10432783;28;20037;-82
2022/01/20 05:57:48;;;;;;;44.83;20.67;;;1.50;99.90;;;;;;10448313;28;20037;-84
2022/01/20 06:08:09;;;;;;;45.27;20.93;;;1.50;99.90;;;;;;10460971;28;20056;-83
2022/01/20 06:13:10;;;;;;;43.40;21.53;;;1.60;99.90;;;;;;10432012;28;20046;-83
2022/01/20 06:18:11;;;;;;;53.80;23.27;;;1.50;99.90;;;;;;10433233;28;20037;-83
2022/01/20 06:23:12;;;;;;;47.00;22.50;;;1.60;99.90;;;;;;10450349;28;20071;-82
2022/01/20 06:28:14;;;;;;;46.67;22.30;;;1.60;99.90;;;;;;10485342;28;20086;-82
2022/01/20 06:33:15;;;;;;;47.27;21.13;;;1.60;99.90;;;;;;10456529;28;20365;-83
2022/01/20 06:38:16;;;;;;;36.07;18.10;;;1.60;99.90;;;;;;10452139;28;20116;-83
2022/01/20 06:43:16;;;;;;;30.30;15.33;;;1.70;99.90;;;;;;10430070;28;20036;-84
2022/01/20 06:48:17;;;;;;;50.47;17.90;;;1.70;99.90;;;;;;10430222;28;20108;-83
2022/01/20 06:53:18;;;;;;;53.53;20.07;;;1.60;99.90;;;;;;10451481;28;20029;-82
2022/01/20 06:58:21;;;;;;;63.30;23.50;;;1.60;99.90;;;;;;10450739;28;20029;-82
2022/01/20 07:03:22;;;;;;;40.93;13.83;;;1.50;99.90;;;;;;10450878;28;20112;-83
2022/01/20 07:08:22;;;;;;;47.23;16.67;;;1.40;99.90;;;;;;10451436;28;20090;-82
2022/01/20 07:13:23;;;;;;;82.40;28.57;;;1.20;99.90;;;;;;10449805;28;20069;-82
2022/01/20 07:18:24;;;;;;;76.80;25.60;;;1.20;99.90;;;;;;10449896;28;20107;-83
2022/01/20 07:23:24;;;;;;;47.17;18.30;;;1.20;99.90;;;;;;10431681;28;20047;-84
2022/01/20 07:28:25;;;;;;;49.70;19.30;;;1.20;99.90;;;;;;10449808;28;20499;-82
2022/01/20 07:33:26;;;;;;;49.37;21.07;;;1.20;99.90;;;;;;10449531;28;20104;-83
2022/01/20 07:38:27;;;;;;;58.53;21.97;;;1.20;99.90;;;;;;10449898;28;20028;-84
2022/01/20 07:43:27;;;;;;;44.10;17.43;;;1.20;99.90;;;;;;10449830;28;20028;-82
2022/01/20 07:48:28;;;;;;;43.70;17.17;;;1.20;99.90;;;;;;10449104;28;20029;-83
2022/01/20 07:53:29;;;;;;;44.70;18.73;;;1.20;99.90;;;;;;10449204;28;20082;-84
2022/01/20 07:58:29;;;;;;;49.73;19.77;;;1.20;99.90;;;;;;10449723;28;20028;-82
2022/01/20 08:03:30;;;;;;;48.67;17.47;;;1.20;99.90;;;;;;10448764;28;20107;-83
2022/01/20 08:08:31;;;;;;;54.00;22.40;;;1.20;99.90;;;;;;10430730;28;20044;-82
2022/01/20 08:13:32;;;;;;;58.77;23.07;;;1.20;99.90;;;;;;10449206;28;20463;-83
2022/01/20 08:18:32;;;;;;;44.70;19.43;;;1.20;99.90;;;;;;10448639;28;20025;-83
2022/01/20 08:23:33;;;;;;;47.97;15.07;;;1.20;99.90;;;;;;10449474;28;20025;-84
2022/01/20 08:28:34;;;;;;;48.67;16.50;;;1.40;99.90;;;;;;10448580;28;20029;-83
2022/01/20 08:33:34;;;;;;;32.63;13.47;;;1.70;99.90;;;;;;10448685;28;20030;-82
2022/01/20 08:38:35;;;;;;;38.87;15.70;;;1.90;99.90;;;;;;10448201;28;20084;-87
2022/01/20 08:43:38;;;;;;;36.07;12.93;;;2.10;99.90;;;;;;10448399;28;20032;-83
2022/01/20 08:48:40;;;;;;;42.17;16.83;;;2.30;99.90;;;;;;10448635;28;20509;-85
2022/01/20 08:53:41;;;;;;;30.80;14.63;;;2.40;99.90;;;;;;10449164;28;20029;-83
2022/01/20 08:58:42;;;;;;;51.13;19.77;;;2.50;99.90;;;;;;10435123;28;20424;-82
2022/01/20 09:03:43;;;;;;;38.40;17.60;;;2.60;99.90;;;;;;10455384;28;20471;-82
2022/01/20 09:08:43;;;;;;;60.23;26.30;;;2.80;99.90;;;;;;10455522;28;20036;-84
2022/01/20 09:19:04;;;;;;;46.13;20.73;;;3.20;99.90;;;;;;10475971;28;20036;-82
2022/01/20 09:24:06;;;;;;;61.27;26.87;;;3.30;99.90;;;;;;10496434;28;20060;-83
2022/01/20 09:29:07;;;;;;;33.03;14.90;;;3.30;99.90;;;;;;10496412;28;20035;-83
2022/01/20 09:34:08;;;;;;;42.40;17.27;;;3.10;99.90;;;;;;10495950;28;20032;-83
2022/01/20 09:39:08;;;;;;;33.30;15.60;;;3.20;99.90;;;;;;10495755;28;20024;-83
2022/01/20 09:44:09;;;;;;;34.10;14.60;;;3.40;99.90;;;;;;10496042;28;20039;-82
2022/01/20 09:49:11;;;;;;;19.30;8.00;;;3.40;99.90;;;;;;10494816;28;20422;-83
2022/01/20 09:54:12;;;;;;;23.47;9.73;;;3.30;99.90;;;;;;10495468;28;20548;-82
2022/01/20 09:59:12;;;;;;;24.60;7.80;;;3.10;99.90;;;;;;10495830;28;20027;-83
2022/01/20 10:04:26;;;;;;;34.70;11.90;;;3.00;99.90;;;;;;10494469;28;20020;-83
2022/01/20 10:09:35;;;;;;;20.83;8.80;;;2.90;99.90;;;;;;10493583;28;20553;-83
2022/01/20 10:14:44;;;;;;;26.77;10.33;;;3.00;99.90;;;;;;10474447;28;20063;-82
2022/01/20 10:19:46;;;;;;;24.40;9.20;;;2.90;99.90;;;;;;10443017;28;20024;-81
2022/01/20 10:25:18;;;;;;;32.43;12.70;;;2.80;99.90;;;;;;10454850;28;20112;-83
2022/01/20 10:30:21;;;;;;;21.87;6.90;;;2.40;99.90;;;;;;10435515;28;20051;-82
2022/01/20 10:35:31;;;;;;;26.00;8.63;;;2.10;99.90;;;;;;10452123;28;20083;-81
2022/01/20 10:40:32;;;;;;;13.77;4.40;;;1.90;99.90;;;;;;10452847;28;20029;-81
2022/01/20 10:45:33;;;;;;;11.07;3.40;;;1.80;99.90;;;;;;10451135;28;20029;-80
2022/01/20 10:50:36;;;;;;;7.27;2.23;;;1.40;99.90;;;;;;10451532;28;20085;-81
2022/01/20 10:55:37;;;;;;;8.40;3.03;;;0.80;99.90;;;;;;10451346;28;20032;-82
2022/01/20 11:00:46;;;;;;;3.60;1.70;;;0.40;99.90;;;;;;10450688;28;20025;-81
2022/01/20 11:05:51;;;;;;;8.20;2.60;;;0.30;99.90;;;;;;10451154;28;20464;-81
2022/01/20 11:10:54;;;;;;;8.93;3.47;;;0.30;99.90;;;;;;10450701;28;20033;-82
2022/01/20 11:15:55;;;;;;;17.53;4.17;;;0.30;99.90;;;;;;10449790;28;20132;-81
2022/01/20 11:20:56;;;;;;;18.30;4.90;;;0.40;99.90;;;;;;10444072;28;20534;-82
2022/01/20 11:26:03;;;;;;;12.47;3.87;;;0.30;99.90;;;;;;10450427;28;20021;-82
2022/01/20 11:31:06;;;;;;;11.33;3.97;;;0.30;99.90;;;;;;10449933;28;20037;-80
2022/01/20 11:36:29;;;;;;;8.33;4.00;;;0.30;99.90;;;;;;10450045;28;20108;-83
2022/01/20 11:41:47;;;;;;;9.03;3.37;;;0.30;99.90;;;;;;10449494;28;20045;-83
2022/01/20 11:46:50;;;;;;;14.87;5.70;;;0.30;99.90;;;;;;10458766;28;20066;-82
2022/01/20 11:51:58;;;;;;;20.70;7.97;;;0.40;99.90;;;;;;10491051;28;20087;-80
2022/01/20 11:57:13;;;;;;;12.53;5.43;;;0.50;99.90;;;;;;10491188;28;20036;-83
2022/01/20 12:02:36;;;;;;;17.17;5.10;;;0.40;99.90;;;;;;10490771;28;20036;-81
2022/01/20 12:07:36;;;;;;;11.13;3.60;;;0.40;99.90;;;;;;10490611;28;20443;-80
2022/01/20 12:12:39;;;;;;;5.83;2.53;;;0.10;99.90;;;;;;10490853;28;20098;-81
2022/01/20 12:17:48;;;;;;;9.33;3.03;;;0.00;99.90;;;;;;10490560;28;20017;-82
2022/01/20 12:22:49;;;;;;;10.63;2.80;;;-0.10;99.90;;;;;;10490350;28;20021;-81
2022/01/20 12:27:50;;;;;;;7.53;2.10;;;-0.10;99.90;;;;;;10489962;28;20045;-81
2022/01/20 12:32:59;;;;;;;5.23;1.90;;;-0.30;99.90;;;;;;10494299;28;20028;-81
2022/01/20 12:38:00;;;;;;;10.30;3.57;;;-0.30;99.90;;;;;;10497978;28;20082;-80
2022/01/20 12:43:01;;;;;;;11.53;4.77;;;0.00;99.90;;;;;;10498097;28;20089;-79
2022/01/20 12:48:10;;;;;;;13.47;6.30;;;0.10;99.90;;;;;;10497251;28;20037;-79
2022/01/20 12:53:12;;;;;;;13.83;4.57;;;0.20;99.90;;;;;;10497125;28;20060;-81
2022/01/20 12:58:14;;;;;;;14.47;4.67;;;0.20;99.90;;;;;;10497203;28;20032;-81
2022/01/20 13:03:15;;;;;;;8.57;2.20;;;0.30;99.90;;;;;;10496649;28;20033;-80
2022/01/20 13:08:21;;;;;;;20.93;8.50;;;0.40;99.90;;;;;;10496800;28;20044;-81
2022/01/20 13:13:22;;;;;;;;;;;0.40;99.90;;;;;;10497582;28;20381;-80
2022/01/20 13:18:23;;;;;;;18.20;7.33;;;0.60;99.90;;;;;;10496926;28;19912;-79
2022/01/20 13:28:27;;;;;;;17.40;7.07;;;0.50;99.90;;;;;;10496124;28;20106;-82
2022/01/20 13:33:30;;;;;;;15.77;6.17;;;0.50;99.90;;;;;;10496146;28;20597;-81
2022/01/20 13:38:34;;;;;;;16.50;6.37;;;0.60;99.90;;;;;;10477483;28;20035;-79
2022/01/20 13:49:10;;;;;;;15.60;5.43;;;0.40;99.90;;;;;;10452008;28;20037;-80
2022/01/20 13:54:10;;;;;;;16.40;5.90;;;0.30;99.90;;;;;;10452771;28;20039;-81
2022/01/20 13:59:11;;;;;;;28.40;10.03;;;0.10;99.90;;;;;;10460487;28;20029;-81
2022/01/20 14:04:13;;;;;;;22.43;7.00;;;0.10;99.90;;;;;;10495158;28;20436;-82
2022/01/20 14:09:14;;;;;;;19.33;7.13;;;-0.10;99.90;;;;;;10469887;28;20037;-80
2022/01/20 14:14:15;;;;;;;13.13;5.67;;;-0.20;99.90;;;;;;10447842;28;20060;-81
2022/01/20 14:19:22;;;;;;;18.73;7.53;;;-0.30;99.90;;;;;;10445790;28;20559;-82
2022/01/20 14:24:23;;;;;;;31.40;10.33;;;-0.30;99.90;;;;;;10436180;28;20025;-81
2022/01/20 14:29:25;;;;;;;36.50;11.70;;;-0.30;99.90;;;;;;10436492;28;20045;-80
2022/01/20 14:34:26;;;;;;;31.80;12.07;;;-0.30;99.90;;;;;;10433727;28;20439;-80
2022/01/20 14:39:26;;;;;;;51.77;15.87;;;-0.40;99.90;;;;;;10450429;28;20062;-80
2022/01/20 14:44:27;;;;;;;33.97;13.00;;;-0.40;99.90;;;;;;10450662;28;20029;-79
2022/01/20 14:49:28;;;;;;;63.63;23.17;;;-0.50;99.90;;;;;;10419702;28;20463;-79
2022/01/20 14:54:29;;;;;;;48.37;15.87;;;-0.50;99.90;;;;;;10442230;28;20032;-83
2022/01/20 14:59:32;;;;;;;56.00;22.57;;;-0.50;99.90;;;;;;10461718;28;20013;-79
2022/01/20 15:04:33;;;;;;;52.50;22.77;;;-0.60;99.90;;;;;;10447807;28;20025;-82
2022/01/20 15:09:33;;;;;;;53.20;17.57;;;-0.70;99.90;;;;;;10466313;28;20040;-80
2022/01/20 15:14:35;;;;;;;68.10;26.10;;;-0.70;99.90;;;;;;10466743;28;20052;-81
2022/01/20 15:19:36;;;;;;;63.93;23.57;;;-0.70;99.90;;;;;;10425439;28;20111;-79
2022/01/20 15:24:37;;;;;;;41.07;15.70;;;-0.80;99.90;;;;;;10440882;28;20464;-81
2022/01/20 15:29:37;;;;;;;34.00;11.10;;;-0.80;99.90;;;;;;10424112;28;20522;-81
2022/01/20 15:34:38;;;;;;;57.00;18.43;;;-0.90;99.90;;;;;;10439769;28;20033;-83
2022/01/20 15:39:39;;;;;;;55.13;21.27;;;-0.90;99.90;;;;;;10434504;28;20104;-81
2022/01/20 15:44:39;;;;;;;89.30;29.57;;;-0.90;99.90;;;;;;10453120;28;20083;-81
2022/01/20 15:49:40;;;;;;;87.47;29.93;;;-1.00;99.90;;;;;;10421019;28;20543;-80
2022/01/20 15:54:41;;;;;;;85.33;27.23;;;-1.00;99.90;;;;;;10410177;28;20032;-83
2022/01/20 15:59:42;;;;;;;66.30;23.13;;;-1.10;99.90;;;;;;10446782;28;20548;-81
2022/01/20 16:04:42;;;;;;;68.37;20.33;;;-1.10;99.90;;;;;;10444310;28;20046;-82
2022/01/20 16:09:43;;;;;;;75.27;26.10;;;-1.10;99.90;;;;;;10450590;28;20465;-81
2022/01/20 16:14:44;;;;;;;79.87;25.37;;;-1.10;99.90;;;;;;10390034;28;1220034;-80
2022/01/20 16:19:44;;;;;;;58.23;21.43;;;-1.20;99.90;;;;;;10430936;28;20464;-81
2022/01/20 16:24:45;;;;;;;56.13;19.57;;;-1.20;99.90;;;;;;10444937;28;20496;-80
2022/01/20 16:29:46;;;;;;;68.33;23.07;;;-1.10;99.90;;;;;;10438176;28;20037;-81
2022/01/20 16:34:47;;;;;;;58.23;18.80;;;-1.10;99.90;;;;;;10429325;28;20063;-80
2022/01/20 16:39:47;;;;;;;90.90;29.13;;;-1.10;99.90;;;;;;10429860;28;20029;-79
2022/01/20 16:44:48;;;;;;;56.80;18.37;;;-1.10;99.90;;;;;;10443121;28;20035;-79
2022/01/20 16:49:49;;;;;;;72.00;22.53;;;-1.10;99.90;;;;;;10452334;28;20045;-83
2022/01/20 16:54:50;;;;;;;71.70;25.93;;;-1.20;99.90;;;;;;10461916;28;20033;-80
2022/01/20 16:59:52;;;;;;;56.77;18.57;;;-1.20;99.90;;;;;;10454291;28;20033;-83
2022/01/20 17:04:53;;;;;;;54.50;18.90;;;-1.20;99.90;;;;;;10484786;28;20021;-82
2022/01/20 17:09:55;;;;;;;69.10;23.67;;;-1.20;99.90;;;;;;10437440;28;20052;-83
2022/01/20 17:14:56;;;;;;;42.80;14.17;;;-1.30;99.90;;;;;;10454340;28;20057;-80
2022/01/20 17:19:57;;;;;;;58.57;19.83;;;-1.30;99.90;;;;;;10451803;28;20028;-81
2022/01/20 17:24:57;;;;;;;129.47;34.93;;;-1.40;99.90;;;;;;10451992;28;20036;-80
2022/01/20 17:29:59;;;;;;;68.77;20.53;;;-1.30;99.90;;;;;;10469574;28;20103;-83
2022/01/20 17:35:00;;;;;;;46.53;13.77;;;-1.40;99.90;;;;;;10438445;28;20412;-83
2022/01/20 17:40:01;;;;;;;37.00;11.83;;;-1.40;99.90;;;;;;10423018;28;20037;-82
2022/01/20 17:45:02;;;;;;;58.43;16.53;;;-1.40;99.90;;;;;;10453085;28;20037;-82
2022/01/20 17:50:05;;;;;;;59.67;17.33;;;-1.40;99.90;;;;;;10447567;28;20768;-82
2022/01/20 17:55:09;;;;;;;51.23;14.83;;;-1.30;99.90;;;;;;10450374;28;20032;-81
2022/01/20 18:00:13;;;;;;;60.93;19.33;;;-1.40;99.90;;;;;;10461242;28;20025;-80
2022/01/20 18:05:16;;;;;;;56.33;18.70;;;-1.40;99.90;;;;;;10447528;28;20025;-80
2022/01/20 18:10:17;;;;;;;73.83;22.67;;;-1.40;99.90;;;;;;10462993;28;20393;-83
2022/01/20 18:15:18;;;;;;;43.60;10.83;;;-1.30;99.90;;;;;;10462508;28;20057;-81
2022/01/20 18:20:18;;;;;;;42.37;13.33;;;-1.30;99.90;;;;;;10451480;28;20025;-80
2022/01/20 18:25:19;;;;;;;31.27;10.57;;;-1.30;99.90;;;;;;10491862;28;20035;-79
2022/01/20 18:30:20;;;;;;;33.60;11.47;;;-1.30;99.90;;;;;;10455009;28;20041;-81
2022/01/20 18:35:21;;;;;;;42.73;13.57;;;-1.30;99.90;;;;;;10450615;28;20469;-80
2022/01/20 18:40:22;;;;;;;57.70;17.77;;;-1.20;99.90;;;;;;10446913;28;20033;-81
2022/01/20 18:45:23;;;;;;;35.20;11.13;;;-1.20;99.90;;;;;;10445910;28;20041;-80
2022/01/20 18:50:24;;;;;;;32.93;9.70;;;-1.20;99.90;;;;;;10450170;28;20040;-79
2022/01/20 18:55:25;;;;;;;24.70;7.30;;;-1.20;99.90;;;;;;10450785;28;20025;-80
2022/01/20 19:00:25;;;;;;;38.27;11.00;;;-1.20;99.90;;;;;;10449584;28;20024;-79
2022/01/20 19:05:26;;;;;;;25.40;8.93;;;-1.20;99.90;;;;;;10465763;28;20028;-81
2022/01/20 19:10:27;;;;;;;29.53;9.07;;;-1.20;99.90;;;;;;10459368;28;20120;-79
2022/01/20 19:15:28;;;;;;;29.23;9.33;;;-1.10;99.90;;;;;;10449944;28;20060;-80
2022/01/20 19:20:29;;;;;;;25.43;7.53;;;-1.10;99.90;;;;;;10432079;28;20033;-80
2022/01/20 19:25:30;;;;;;;25.17;8.60;;;-1.10;99.90;;;;;;10465021;28;20048;-80
2022/01/20 19:30:31;;;;;;;30.33;9.63;;;-1.10;99.90;;;;;;10448715;28;20593;-80
2022/01/20 19:35:31;;;;;;;27.87;10.83;;;-1.20;99.90;;;;;;10449337;28;20098;-81
2022/01/20 19:40:32;;;;;;;26.30;7.77;;;-1.20;99.90;;;;;;10448238;28;20066;-83
2022/01/20 19:45:33;;;;;;;28.70;8.57;;;-1.30;99.90;;;;;;10449302;28;20021;-80
2022/01/20 19:50:34;;;;;;;21.53;8.00;;;-1.30;99.90;;;;;;10447039;28;20033;-84
2022/01/20 19:55:36;;;;;;;19.13;7.40;;;-1.40;99.90;;;;;;10447239;28;20037;-83
2022/01/20 20:00:37;;;;;;;33.43;10.60;;;-1.40;99.90;;;;;;10442140;28;20028;-81
2022/01/20 20:05:40;;;;;;;41.30;12.83;;;-1.40;99.90;;;;;;10435162;28;20025;-81
2022/01/20 20:10:41;;;;;;;48.33;11.93;;;-1.50;99.90;;;;;;10454973;28;20092;-82
2022/01/20 20:15:45;;;;;;;27.67;9.57;;;-1.60;99.90;;;;;;10447677;28;20061;-85
2022/01/20 20:20:45;;;;;;;40.20;13.23;;;-1.50;99.90;;;;;;10443398;28;20040;-84
2022/01/20 20:25:46;;;;;;;27.70;9.07;;;-1.60;99.90;;;;;;10447267;28;20552;-84
2022/01/20 20:30:47;;;;;;;44.17;12.90;;;-1.60;99.90;;;;;;10425561;28;20123;-86
2022/01/20 20:35:48;;;;;;;29.80;11.20;;;-1.60;99.90;;;;;;10440022;28;20041;-84
2022/01/20 20:40:49;;;;;;;26.93;8.23;;;-1.60;99.90;;;;;;10445454;28;20436;-84
2022/01/20 20:45:50;;;;;;;41.60;11.27;;;-1.70;99.90;;;;;;10420725;28;20029;-84
2022/01/20 20:50:50;;;;;;;28.37;10.17;;;-1.70;99.90;;;;;;10455269;28;20049;-81
2022/01/20 20:55:53;;;;;;;33.97;10.37;;;-1.80;99.90;;;;;;10459598;28;20029;-84
2022/01/20 21:00:53;;;;;;;37.47;12.23;;;-1.80;99.90;;;;;;10435869;28;20106;-84
2022/01/20 21:05:54;;;;;;;28.13;10.43;;;-1.80;99.90;;;;;;10446843;28;20048;-82
2022/01/20 21:10:56;;;;;;;40.80;14.77;;;-1.90;99.90;;;;;;10453940;28;20045;-83
2022/01/20 21:15:57;;;;;;;45.90;14.70;;;-1.80;99.90;;;;;;10438064;28;20085;-83
2022/01/20 21:20:58;;;;;;;67.27;23.53;;;-1.90;99.90;;;;;;10439362;28;20100;-85
2022/01/20 21:25:59;;;;;;;45.70;16.20;;;-1.90;99.90;;;;;;10442851;28;20528;-85
2022/01/20 21:31:00;;;;;;;36.33;13.37;;;-1.90;99.90;;;;;;10452560;28;20033;-85
2022/01/20 21:36:06;;;;;;;40.17;12.80;;;-1.80;99.90;;;;;;10442489;28;20029;-83
2022/01/20 21:41:10;;;;;;;44.27;14.40;;;-1.80;99.90;;;;;;10422784;28;20087;-82
2022/01/20 21:46:12;;;;;;;85.70;24.10;;;-1.80;99.90;;;;;;10442296;28;20033;-82
2022/01/20 21:51:12;;;;;;;47.80;17.17;;;-1.70;99.90;;;;;;10447322;28;20041;-83
2022/01/20 21:56:16;;;;;;;54.57;18.20;;;-1.70;99.90;;;;;;10445922;28;20083;-82
2022/01/20 22:01:17;;;;;;;47.43;15.53;;;-1.70;99.90;;;;;;10446638;28;20035;-81
2022/01/20 22:06:18;;;;;;;35.60;13.33;;;-1.70;99.90;;;;;;10453636;28;20120;-82
2022/01/20 22:11:18;;;;;;;36.87;13.27;;;-1.80;99.90;;;;;;10460873;28;20037;-82
2022/01/20 22:16:20;;;;;;;29.83;12.23;;;-1.80;99.90;;;;;;10453338;28;20045;-81
2022/01/20 22:21:21;;;;;;;34.23;9.17;;;-1.90;99.90;;;;;;10451428;28;20075;-82
2022/01/20 22:26:21;;;;;;;19.93;7.40;;;-1.80;99.90;;;;;;10477599;28;20526;-83
2022/01/20 22:31:22;;;;;;;27.13;8.87;;;-1.90;99.90;;;;;;10445936;28;20032;-83
2022/01/20 22:36:23;;;;;;;22.03;7.83;;;-1.90;99.90;;;;;;10455552;28;20044;-83
2022/01/20 22:41:24;;;;;;;14.67;5.43;;;-1.90;99.90;;;;;;10451375;28;20033;-82
2022/01/20 22:46:24;;;;;;;15.27;6.07;;;-1.80;99.90;;;;;;10450206;28;20040;-83
2022/01/20 22:51:26;;;;;;;15.47;5.13;;;-1.80;99.90;;;;;;10450673;28;20483;-82
2022/01/20 22:56:26;;;;;;;18.63;5.70;;;-1.70;99.90;;;;;;10459887;28;20038;-81
2022/01/20 23:01:27;;;;;;;16.87;6.10;;;-1.80;99.90;;;;;;10452313;28;20036;-83
2022/01/20 23:06:28;;;;;;;17.90;6.97;;;-1.80;99.90;;;;;;10450491;28;20083;-83
2022/01/20 23:11:28;;;;;;;16.87;6.80;;;-1.70;99.90;;;;;;10450057;28;20051;-82
2022/01/20 23:21:34;;;;;;;16.90;7.90;;;-1.70;99.90;;;;;;10452655;28;20047;-82
2022/01/20 23:26:35;;;;;;;18.48;7.38;;;-1.70;99.90;;;;;;10453237;28;20028;-81
2022/01/20 23:31:36;;;;;;;16.73;6.90;;;-1.70;99.90;;;;;;10456273;28;20104;-82
2022/01/20 23:36:40;;;;;;;20.47;8.03;;;-1.80;99.90;;;;;;10448571;28;20029;-81
2022/01/20 23:41:43;;;;;;;20.00;8.40;;;-1.80;99.90;;;;;;10449287;28;20032;-84
2022/01/20 23:52:03;;;;;;;16.47;5.77;;;-1.80;99.90;;;;;;10463434;28;20072;-81
2022/01/20 23:57:04;;;;;;;28.53;10.00;;;-1.70;99.90;;;;;;10448984;28;20453;-84
